CCA1462 ZUGY-ZLXN
Flight info
| Callsign | CCA1462 |
|---|---|
| Flight time | 1h 42m |
| Altitude | 32100 |
| Route | BIPIP3C BIPIP W179 IGNAK/K0941S1070 W179 WFX/K0945S1040 W179 OMBON W195 VIDEK/K0933S1070 W195 LAXAL/K0928S1100 W195 IGDOB W111 UPVOP UPV19A |
| Aircraft | B742/H-SDE1E2E3FGHIJ2J3J4J5M1RWXYZ/LB1D1 |
Departure
| Time | 2026-04-26 02:26 |
|---|---|
| Airport | Guiyang Longdongbao International Airport (ZUGY) |
Arrival
| Time | 2026-04-26 04:09 |
|---|---|
| Airport | Xining Caojiabao International Airport (ZLXN) |
| Time | Latitude | Longitude | Altitude | Speed | Heading |
|---|---|---|---|---|---|
| 2026-04-26 01:59 | 26.55505 | 106.79890 | 3748 ft | 0 kts | 189° |
| 2026-04-26 02:13 | 26.55518 | 106.79893 | 3747 ft | 2 kts | 189° |
| 2026-04-26 02:13 | 26.55533 | 106.79896 | 3747 ft | 2 kts | 189° |
| 2026-04-26 02:13 | 26.55549 | 106.79899 | 3747 ft | 2 kts | 190° |
| 2026-04-26 02:14 | 26.55558 | 106.79900 | 3747 ft | 2 kts | 187° |
| 2026-04-26 02:14 | 26.55573 | 106.79899 | 3747 ft | 2 kts | 160° |
| 2026-04-26 02:14 | 26.55586 | 106.79891 | 3747 ft | 2 kts | 140° |
| 2026-04-26 02:14 | 26.55596 | 106.79878 | 3747 ft | 2 kts | 118° |
| 2026-04-26 02:15 | 26.55601 | 106.79865 | 3747 ft | 0 kts | 100° |
| 2026-04-26 02:15 | 26.55602 | 106.79859 | 3747 ft | 0 kts | 99° |
| 2026-04-26 02:15 | 26.55602 | 106.79860 | 3747 ft | 0 kts | 99° |
| 2026-04-26 02:19 | 26.55600 | 106.79868 | 3747 ft | 4 kts | 99° |
| 2026-04-26 02:20 | 26.55589 | 106.79945 | 3747 ft | 13 kts | 99° |
| 2026-04-26 02:20 | 26.55575 | 106.80045 | 3747 ft | 12 kts | 99° |
| 2026-04-26 02:20 | 26.55562 | 106.80134 | 3747 ft | 9 kts | 93° |
| 2026-04-26 02:20 | 26.55595 | 106.80189 | 3747 ft | 10 kts | 22° |
| 2026-04-26 02:21 | 26.55692 | 106.80212 | 3747 ft | 14 kts | 11° |
| 2026-04-26 02:21 | 26.55788 | 106.80230 | 3747 ft | 13 kts | 7° |
| 2026-04-26 02:21 | 26.55874 | 106.80245 | 3747 ft | 11 kts | 9° |
| 2026-04-26 02:21 | 26.55946 | 106.80258 | 3747 ft | 9 kts | 9° |
| 2026-04-26 02:22 | 26.56024 | 106.80281 | 3747 ft | 13 kts | 28° |
| 2026-04-26 02:22 | 26.56099 | 106.80377 | 3747 ft | 17 kts | 62° |
| 2026-04-26 02:22 | 26.56105 | 106.80482 | 3747 ft | 9 kts | 100° |
| 2026-04-26 02:22 | 26.56095 | 106.80548 | 3747 ft | 7 kts | 100° |
| 2026-04-26 02:23 | 26.56082 | 106.80625 | 3747 ft | 13 kts | 100° |
| 2026-04-26 02:23 | 26.56032 | 106.80724 | 3747 ft | 14 kts | 163° |
| 2026-04-26 02:23 | 26.55936 | 106.80719 | 3747 ft | 11 kts | 183° |
| 2026-04-26 02:23 | 26.55916 | 106.80724 | 3747 ft | 0 kts | 144° |
| 2026-04-26 02:24 | 26.55909 | 106.80733 | 3747 ft | 3 kts | 126° |
| 2026-04-26 02:24 | 26.55900 | 106.80774 | 3747 ft | 8 kts | 96° |
| 2026-04-26 02:24 | 26.55887 | 106.80862 | 3747 ft | 11 kts | 113° |
| 2026-04-26 02:24 | 26.55830 | 106.80885 | 3747 ft | 7 kts | 194° |
| 2026-04-26 02:25 | 26.55821 | 106.80882 | 3747 ft | 0 kts | 192° |
| 2026-04-26 02:25 | 26.55800 | 106.80878 | 3747 ft | 9 kts | 192° |
| 2026-04-26 02:25 | 26.55582 | 106.80833 | 3747 ft | 60 kts | 190° |
| 2026-04-26 02:25 | 26.54964 | 106.80711 | 3747 ft | 117 kts | 190° |
| 2026-04-26 02:26 | 26.53967 | 106.80518 | 3751 ft | 165 kts | 190° |
| 2026-04-26 02:26 | 26.52773 | 106.80298 | 4091 ft | 175 kts | 189° |
| 2026-04-26 02:26 | 26.51547 | 106.80077 | 4631 ft | 176 kts | 189° |
| 2026-04-26 02:26 | 26.50331 | 106.79841 | 5330 ft | 170 kts | 190° |
| 2026-04-26 02:27 | 26.49061 | 106.79588 | 5602 ft | 190 kts | 190° |
| 2026-04-26 02:27 | 26.47659 | 106.79310 | 5989 ft | 204 kts | 190° |
| 2026-04-26 02:27 | 26.46194 | 106.79019 | 6457 ft | 215 kts | 190° |
| 2026-04-26 02:27 | 26.44609 | 106.78707 | 7031 ft | 222 kts | 191° |
| 2026-04-26 02:28 | 26.43037 | 106.78397 | 7738 ft | 215 kts | 192° |
| 2026-04-26 02:28 | 26.41510 | 106.78069 | 8014 ft | 221 kts | 199° |
| 2026-04-26 02:28 | 26.40232 | 106.77074 | 8332 ft | 222 kts | 236° |
| 2026-04-26 02:28 | 26.39824 | 106.75342 | 8807 ft | 225 kts | 274° |
| 2026-04-26 02:29 | 26.40459 | 106.73709 | 9120 ft | 238 kts | 308° |
| 2026-04-26 02:29 | 26.41769 | 106.72521 | 9518 ft | 243 kts | 322° |
| 2026-04-26 02:29 | 26.43304 | 106.71571 | 9929 ft | 245 kts | 328° |
| 2026-04-26 02:29 | 26.44904 | 106.70740 | 10306 ft | 247 kts | 330° |
| 2026-04-26 02:30 | 26.46559 | 106.69941 | 10675 ft | 248 kts | 332° |
| 2026-04-26 02:30 | 26.48271 | 106.69135 | 11052 ft | 249 kts | 332° |
| 2026-04-26 02:30 | 26.49974 | 106.68341 | 11433 ft | 249 kts | 332° |
| 2026-04-26 02:30 | 26.51836 | 106.67890 | 11713 ft | 260 kts | 2° |
| 2026-04-26 02:31 | 26.53754 | 106.68220 | 12040 ft | 264 kts | 7° |
| 2026-04-26 02:31 | 26.55762 | 106.68646 | 12278 ft | 270 kts | 7° |
| 2026-04-26 02:31 | 26.57712 | 106.69043 | 12505 ft | 278 kts | 6° |
| 2026-04-26 02:31 | 26.59784 | 106.69450 | 12726 ft | 288 kts | 7° |
| 2026-04-26 02:32 | 26.61911 | 106.69865 | 12899 ft | 301 kts | 7° |
| 2026-04-26 02:32 | 26.64039 | 106.70282 | 13070 ft | 315 kts | 7° |
| 2026-04-26 02:32 | 26.66340 | 106.70732 | 13248 ft | 330 kts | 7° |
| 2026-04-26 02:32 | 26.68693 | 106.71191 | 13417 ft | 345 kts | 7° |
| 2026-04-26 02:33 | 26.71150 | 106.71673 | 13583 ft | 360 kts | 7° |
| 2026-04-26 02:33 | 26.73721 | 106.72176 | 13758 ft | 376 kts | 7° |
| 2026-04-26 02:33 | 26.76385 | 106.72699 | 14184 ft | 382 kts | 7° |
| 2026-04-26 02:33 | 26.79010 | 106.73215 | 14783 ft | 384 kts | 7° |
| 2026-04-26 02:34 | 26.81726 | 106.73747 | 15319 ft | 387 kts | 8° |
| 2026-04-26 02:34 | 26.84409 | 106.74273 | 15822 ft | 391 kts | 8° |
| 2026-04-26 02:34 | 26.87184 | 106.74816 | 16337 ft | 395 kts | 8° |
| 2026-04-26 02:34 | 26.90104 | 106.75075 | 16798 ft | 395 kts | 354° |
| 2026-04-26 02:35 | 26.92963 | 106.74455 | 17297 ft | 394 kts | 338° |
| 2026-04-26 02:35 | 26.95479 | 106.73048 | 17797 ft | 391 kts | 322° |
| 2026-04-26 02:35 | 26.97514 | 106.71011 | 18310 ft | 388 kts | 308° |
| 2026-04-26 02:35 | 26.99161 | 106.68654 | 18763 ft | 390 kts | 303° |
| 2026-04-26 02:36 | 27.00768 | 106.66149 | 19299 ft | 392 kts | 303° |
| 2026-04-26 02:36 | 27.02417 | 106.63596 | 19785 ft | 395 kts | 304° |
| 2026-04-26 02:36 | 27.04091 | 106.61057 | 20305 ft | 397 kts | 304° |
| 2026-04-26 02:36 | 27.05833 | 106.58454 | 20805 ft | 399 kts | 304° |
| 2026-04-26 02:37 | 27.07563 | 106.55890 | 21293 ft | 402 kts | 304° |
| 2026-04-26 02:37 | 27.09301 | 106.53320 | 21762 ft | 404 kts | 305° |
| 2026-04-26 02:37 | 27.11050 | 106.50735 | 22209 ft | 406 kts | 304° |
| 2026-04-26 02:37 | 27.12785 | 106.48166 | 22662 ft | 408 kts | 304° |
| 2026-04-26 02:38 | 27.14567 | 106.45527 | 23089 ft | 411 kts | 304° |
| 2026-04-26 02:38 | 27.16338 | 106.42903 | 23490 ft | 414 kts | 305° |
| 2026-04-26 02:38 | 27.18119 | 106.40266 | 23917 ft | 416 kts | 305° |
| 2026-04-26 02:38 | 27.19946 | 106.37652 | 24257 ft | 421 kts | 310° |
| 2026-04-26 02:39 | 27.22134 | 106.35270 | 24631 ft | 425 kts | 316° |
| 2026-04-26 02:39 | 27.24480 | 106.32985 | 25035 ft | 428 kts | 317° |
| 2026-04-26 02:39 | 27.26772 | 106.30787 | 25403 ft | 431 kts | 317° |
| 2026-04-26 02:39 | 27.29155 | 106.28497 | 25793 ft | 434 kts | 317° |
| 2026-04-26 02:40 | 27.31532 | 106.26203 | 26167 ft | 436 kts | 317° |
| 2026-04-26 02:40 | 27.33932 | 106.23877 | 26540 ft | 438 kts | 317° |
| 2026-04-26 02:40 | 27.36305 | 106.21569 | 26865 ft | 441 kts | 317° |
| 2026-04-26 02:40 | 27.38756 | 106.19182 | 27234 ft | 443 kts | 317° |
| 2026-04-26 02:41 | 27.41189 | 106.16811 | 27558 ft | 446 kts | 317° |
| 2026-04-26 02:41 | 27.43625 | 106.14433 | 27895 ft | 448 kts | 317° |
| 2026-04-26 02:41 | 27.46104 | 106.12012 | 28210 ft | 450 kts | 317° |
| 2026-04-26 02:41 | 27.48583 | 106.09589 | 28493 ft | 453 kts | 317° |
| 2026-04-26 02:42 | 27.51076 | 106.07151 | 28792 ft | 455 kts | 317° |
| 2026-04-26 02:42 | 27.53587 | 106.04694 | 29099 ft | 456 kts | 317° |
| 2026-04-26 02:42 | 27.56109 | 106.02225 | 29394 ft | 458 kts | 317° |
| 2026-04-26 02:42 | 27.58648 | 105.99738 | 29701 ft | 460 kts | 317° |
| 2026-04-26 02:43 | 27.63660 | 105.94823 | 30254 ft | 464 kts | 317° |
| 2026-04-26 02:43 | 27.66155 | 105.92374 | 30558 ft | 465 kts | 317° |
| 2026-04-26 02:43 | 27.68686 | 105.89889 | 30849 ft | 466 kts | 317° |
| 2026-04-26 02:44 | 27.71190 | 105.87312 | 31105 ft | 466 kts | 311° |
| 2026-04-26 02:44 | 27.73186 | 105.84293 | 31304 ft | 466 kts | 298° |
| 2026-04-26 02:44 | 27.74576 | 105.80862 | 31569 ft | 466 kts | 289° |
| 2026-04-26 02:44 | 27.75621 | 105.77361 | 31883 ft | 465 kts | 287° |
| 2026-04-26 02:45 | 27.76582 | 105.73787 | 32059 ft | 469 kts | 286° |
| 2026-04-26 02:45 | 27.77515 | 105.70258 | 32094 ft | 475 kts | 286° |
| 2026-04-26 02:45 | 27.79469 | 105.63016 | 32096 ft | 488 kts | 287° |
| 2026-04-26 02:46 | 27.81968 | 105.55756 | 32087 ft | 487 kts | 293° |
| 2026-04-26 02:46 | 27.84774 | 105.48694 | 32091 ft | 494 kts | 294° |
| 2026-04-26 02:47 | 27.87644 | 105.41406 | 32100 ft | 496 kts | 293° |
| 2026-04-26 02:47 | 27.90620 | 105.34222 | 32105 ft | 491 kts | 296° |
| 2026-04-26 02:48 | 27.93802 | 105.27125 | 32110 ft | 494 kts | 296° |
| 2026-04-26 02:48 | 27.97047 | 105.20087 | 32108 ft | 492 kts | 302° |
| 2026-04-26 02:49 | 27.99252 | 105.16966 | 32097 ft | 494 kts | 314° |
| 2026-04-26 02:49 | 28.01986 | 105.14394 | 32093 ft | 497 kts | 323° |
| 2026-04-26 02:49 | 28.07986 | 105.10124 | 32093 ft | 500 kts | 327° |
| 2026-04-26 02:50 | 28.14141 | 105.05982 | 32083 ft | 498 kts | 327° |
| 2026-04-26 02:50 | 28.20231 | 105.01788 | 32097 ft | 497 kts | 326° |
| 2026-04-26 02:51 | 28.26203 | 104.97616 | 32105 ft | 498 kts | 326° |
| 2026-04-26 02:51 | 28.32270 | 104.93362 | 32090 ft | 497 kts | 326° |
| 2026-04-26 02:52 | 28.38346 | 104.89097 | 32060 ft | 497 kts | 326° |
| 2026-04-26 02:52 | 28.44404 | 104.84860 | 32047 ft | 498 kts | 327° |
| 2026-04-26 02:53 | 28.50656 | 104.80496 | 32027 ft | 498 kts | 327° |
| 2026-04-26 02:53 | 28.56960 | 104.76086 | 32026 ft | 498 kts | 327° |
| 2026-04-26 02:54 | 28.63296 | 104.71647 | 32028 ft | 500 kts | 327° |
| 2026-04-26 02:54 | 28.69393 | 104.67369 | 32030 ft | 498 kts | 327° |
| 2026-04-26 02:55 | 28.75276 | 104.63236 | 32025 ft | 496 kts | 326° |
| 2026-04-26 02:55 | 28.81183 | 104.59079 | 32020 ft | 497 kts | 326° |
| 2026-04-26 02:56 | 28.87042 | 104.54947 | 32010 ft | 496 kts | 326° |
| 2026-04-26 02:56 | 28.92980 | 104.50725 | 32003 ft | 498 kts | 326° |
| 2026-04-26 02:57 | 28.99010 | 104.46426 | 32000 ft | 499 kts | 326° |
| 2026-04-26 02:57 | 29.04874 | 104.42245 | 31985 ft | 498 kts | 326° |
| 2026-04-26 02:58 | 29.10750 | 104.38051 | 31984 ft | 497 kts | 326° |
| 2026-04-26 02:58 | 29.16619 | 104.33850 | 31986 ft | 497 kts | 326° |
| 2026-04-26 02:59 | 29.22488 | 104.29612 | 31985 ft | 497 kts | 327° |
| 2026-04-26 02:59 | 29.25604 | 104.27943 | 31989 ft | 500 kts | 339° |
| 2026-04-26 02:59 | 29.29017 | 104.27016 | 31991 ft | 506 kts | 350° |
| 2026-04-26 03:00 | 29.32570 | 104.26886 | 31999 ft | 511 kts | 1° |
| 2026-04-26 03:00 | 29.36083 | 104.27321 | 32000 ft | 515 kts | 6° |
| 2026-04-26 03:00 | 29.43287 | 104.28715 | 32002 ft | 514 kts | 7° |
| 2026-04-26 03:01 | 29.50455 | 104.30077 | 32007 ft | 514 kts | 6° |
| 2026-04-26 03:01 | 29.57558 | 104.31321 | 32008 ft | 514 kts | 6° |
| 2026-04-26 03:02 | 29.64643 | 104.32528 | 32009 ft | 513 kts | 6° |
| 2026-04-26 03:02 | 29.71774 | 104.33740 | 32017 ft | 515 kts | 6° |
| 2026-04-26 03:03 | 29.78904 | 104.34956 | 32020 ft | 516 kts | 6° |
| 2026-04-26 03:03 | 29.86116 | 104.36188 | 32019 ft | 516 kts | 6° |
| 2026-04-26 03:04 | 29.93413 | 104.37438 | 32016 ft | 515 kts | 6° |
| 2026-04-26 03:04 | 30.00579 | 104.38666 | 32015 ft | 517 kts | 6° |
| 2026-04-26 03:05 | 30.06354 | 104.39657 | 32008 ft | 516 kts | 6° |
| 2026-04-26 03:05 | 30.13527 | 104.40891 | 32010 ft | 515 kts | 6° |
| 2026-04-26 03:06 | 30.20625 | 104.42121 | 32011 ft | 516 kts | 6° |
| 2026-04-26 03:06 | 30.27696 | 104.43355 | 32005 ft | 514 kts | 6° |
| 2026-04-26 03:07 | 30.34798 | 104.44595 | 32001 ft | 512 kts | 6° |
| 2026-04-26 03:07 | 30.41867 | 104.45828 | 32005 ft | 514 kts | 6° |
| 2026-04-26 03:08 | 30.48927 | 104.47064 | 32002 ft | 514 kts | 6° |
| 2026-04-26 03:08 | 30.56004 | 104.48304 | 32007 ft | 513 kts | 6° |
| 2026-04-26 03:09 | 30.63042 | 104.48177 | 32012 ft | 507 kts | 346° |
| 2026-04-26 03:09 | 30.65401 | 104.47504 | 32009 ft | 506 kts | 342° |
| 2026-04-26 03:10 | 30.71836 | 104.45058 | 32015 ft | 503 kts | 338° |
| 2026-04-26 03:10 | 30.78437 | 104.42394 | 32017 ft | 502 kts | 339° |
| 2026-04-26 03:11 | 30.85046 | 104.39809 | 32019 ft | 504 kts | 340° |
| 2026-04-26 03:11 | 30.88504 | 104.38954 | 32025 ft | 506 kts | 351° |
| 2026-04-26 03:11 | 30.91999 | 104.38644 | 32026 ft | 508 kts | 355° |
| 2026-04-26 03:12 | 30.99115 | 104.38514 | 32029 ft | 511 kts | 357° |
| 2026-04-26 03:12 | 31.06218 | 104.38432 | 32043 ft | 509 kts | 356° |
| 2026-04-26 03:13 | 31.13304 | 104.38279 | 32036 ft | 510 kts | 356° |
| 2026-04-26 03:13 | 31.20399 | 104.38095 | 32048 ft | 508 kts | 356° |
| 2026-04-26 03:14 | 31.27483 | 104.37869 | 32052 ft | 507 kts | 355° |
| 2026-04-26 03:14 | 31.34517 | 104.37456 | 32058 ft | 507 kts | 354° |
| 2026-04-26 03:15 | 31.41581 | 104.37016 | 32073 ft | 508 kts | 354° |
| 2026-04-26 03:15 | 31.48626 | 104.36596 | 32091 ft | 506 kts | 354° |
| 2026-04-26 03:16 | 31.55668 | 104.36183 | 32113 ft | 506 kts | 354° |
| 2026-04-26 03:16 | 31.62724 | 104.35770 | 32151 ft | 507 kts | 354° |
| 2026-04-26 03:17 | 31.69743 | 104.35359 | 32198 ft | 506 kts | 354° |
| 2026-04-26 03:17 | 31.76784 | 104.34946 | 32227 ft | 506 kts | 354° |
| 2026-04-26 03:18 | 31.83782 | 104.34576 | 32245 ft | 506 kts | 354° |
| 2026-04-26 03:18 | 31.88797 | 104.34325 | 32259 ft | 506 kts | 354° |
| 2026-04-26 03:19 | 31.95825 | 104.33969 | 32267 ft | 506 kts | 354° |
| 2026-04-26 03:19 | 32.01143 | 104.33697 | 32271 ft | 506 kts | 354° |
| 2026-04-26 03:20 | 32.08158 | 104.33337 | 32291 ft | 504 kts | 354° |
| 2026-04-26 03:20 | 32.15160 | 104.32976 | 32327 ft | 503 kts | 354° |
| 2026-04-26 03:21 | 32.22144 | 104.32616 | 32352 ft | 503 kts | 354° |
| 2026-04-26 03:21 | 32.29129 | 104.32256 | 32383 ft | 503 kts | 354° |
| 2026-04-26 03:22 | 32.36121 | 104.31895 | 32377 ft | 501 kts | 354° |
| 2026-04-26 03:22 | 32.43121 | 104.31535 | 32375 ft | 503 kts | 354° |
| 2026-04-26 03:23 | 32.50087 | 104.31200 | 32384 ft | 500 kts | 354° |
| 2026-04-26 03:23 | 32.57030 | 104.30869 | 32392 ft | 501 kts | 354° |
| 2026-04-26 03:24 | 32.63988 | 104.30535 | 32421 ft | 500 kts | 354° |
| 2026-04-26 03:24 | 32.70946 | 104.30203 | 32463 ft | 496 kts | 354° |
| 2026-04-26 03:25 | 32.77833 | 104.29871 | 32502 ft | 498 kts | 354° |
| 2026-04-26 03:25 | 32.82058 | 104.29666 | 32498 ft | 498 kts | 354° |
| 2026-04-26 03:26 | 32.87548 | 104.29401 | 32516 ft | 497 kts | 354° |
| 2026-04-26 03:26 | 32.94454 | 104.29068 | 32497 ft | 495 kts | 354° |
| 2026-04-26 03:27 | 33.01411 | 104.28731 | 32503 ft | 497 kts | 354° |
| 2026-04-26 03:27 | 33.08318 | 104.28396 | 32475 ft | 494 kts | 354° |
| 2026-04-26 03:28 | 33.15237 | 104.28059 | 32473 ft | 497 kts | 354° |
| 2026-04-26 03:28 | 33.22147 | 104.27723 | 32448 ft | 496 kts | 354° |
| 2026-04-26 03:29 | 33.29026 | 104.27389 | 32428 ft | 494 kts | 354° |
| 2026-04-26 03:29 | 33.35894 | 104.26437 | 32435 ft | 488 kts | 340° |
| 2026-04-26 03:30 | 33.42051 | 104.23018 | 32468 ft | 484 kts | 328° |
| 2026-04-26 03:30 | 33.47842 | 104.18967 | 32471 ft | 482 kts | 327° |
| 2026-04-26 03:31 | 33.53637 | 104.14916 | 32487 ft | 483 kts | 327° |
| 2026-04-26 03:31 | 33.59727 | 104.11606 | 32502 ft | 491 kts | 343° |
| 2026-04-26 03:32 | 33.66679 | 104.10899 | 32493 ft | 496 kts | 356° |
| 2026-04-26 03:32 | 33.73675 | 104.11044 | 32483 ft | 498 kts | 357° |
| 2026-04-26 03:33 | 33.80734 | 104.11156 | 32473 ft | 496 kts | 356° |
| 2026-04-26 03:33 | 33.87841 | 104.11186 | 32436 ft | 495 kts | 355° |
| 2026-04-26 03:34 | 33.94969 | 104.11188 | 32448 ft | 496 kts | 356° |
| 2026-04-26 03:34 | 34.02072 | 104.11185 | 32440 ft | 497 kts | 355° |
| 2026-04-26 03:35 | 34.09169 | 104.11185 | 32439 ft | 496 kts | 356° |
| 2026-04-26 03:35 | 34.16261 | 104.11186 | 32451 ft | 495 kts | 355° |
| 2026-04-26 03:36 | 34.23313 | 104.11185 | 32451 ft | 496 kts | 355° |
| 2026-04-26 03:36 | 34.30383 | 104.11185 | 32457 ft | 496 kts | 355° |
| 2026-04-26 03:37 | 34.37373 | 104.11186 | 32448 ft | 492 kts | 355° |
| 2026-04-26 03:37 | 34.44362 | 104.11185 | 32467 ft | 495 kts | 356° |
| 2026-04-26 03:38 | 34.51432 | 104.11185 | 32452 ft | 494 kts | 355° |
| 2026-04-26 03:38 | 34.58468 | 104.11185 | 32455 ft | 493 kts | 355° |
| 2026-04-26 03:39 | 34.65489 | 104.11185 | 32462 ft | 494 kts | 355° |
| 2026-04-26 03:39 | 34.72465 | 104.11184 | 32449 ft | 495 kts | 355° |
| 2026-04-26 03:40 | 34.79415 | 104.11185 | 32455 ft | 492 kts | 355° |
| 2026-04-26 03:40 | 34.86332 | 104.11185 | 32457 ft | 493 kts | 355° |
| 2026-04-26 03:41 | 34.93211 | 104.11185 | 32462 ft | 492 kts | 355° |
| 2026-04-26 03:41 | 35.00115 | 104.11184 | 32474 ft | 494 kts | 355° |
| 2026-04-26 03:42 | 35.06947 | 104.11185 | 32457 ft | 492 kts | 355° |
| 2026-04-26 03:42 | 35.13842 | 104.11185 | 32455 ft | 492 kts | 355° |
| 2026-04-26 03:43 | 35.20708 | 104.11184 | 32462 ft | 492 kts | 355° |
| 2026-04-26 03:43 | 35.27589 | 104.11186 | 32436 ft | 490 kts | 355° |
| 2026-04-26 03:44 | 35.34399 | 104.11185 | 32425 ft | 490 kts | 355° |
| 2026-04-26 03:44 | 35.41289 | 104.11183 | 32425 ft | 492 kts | 355° |
| 2026-04-26 03:45 | 35.48134 | 104.11185 | 32431 ft | 490 kts | 355° |
| 2026-04-26 03:45 | 35.54987 | 104.11198 | 32394 ft | 492 kts | 356° |
| 2026-04-26 03:46 | 35.61828 | 104.11231 | 32409 ft | 489 kts | 356° |
| 2026-04-26 03:47 | 35.72087 | 104.11276 | 32384 ft | 490 kts | 356° |
| 2026-04-26 03:47 | 35.78954 | 104.11307 | 32399 ft | 489 kts | 356° |
| 2026-04-26 03:48 | 35.85764 | 104.11120 | 32367 ft | 488 kts | 352° |
| 2026-04-26 03:48 | 35.92572 | 104.10360 | 32353 ft | 488 kts | 350° |
| 2026-04-26 03:49 | 35.99311 | 104.09563 | 32335 ft | 487 kts | 351° |
| 2026-04-26 03:49 | 36.06113 | 104.08798 | 32316 ft | 485 kts | 351° |
| 2026-04-26 03:50 | 36.12923 | 104.08038 | 32327 ft | 484 kts | 349° |
| 2026-04-26 03:50 | 36.16152 | 104.07170 | 32327 ft | 476 kts | 338° |
| 2026-04-26 03:50 | 36.19155 | 104.05470 | 32331 ft | 471 kts | 326° |
| 2026-04-26 03:50 | 36.21744 | 104.03046 | 32328 ft | 468 kts | 314° |
| 2026-04-26 03:51 | 36.23864 | 103.99944 | 32323 ft | 467 kts | 303° |
| 2026-04-26 03:51 | 36.25377 | 103.96359 | 32334 ft | 468 kts | 292° |
| 2026-04-26 03:51 | 36.26400 | 103.92561 | 32323 ft | 467 kts | 287° |
| 2026-04-26 03:52 | 36.27862 | 103.84673 | 32284 ft | 470 kts | 283° |
| 2026-04-26 03:52 | 36.28500 | 103.80673 | 31912 ft | 475 kts | 282° |
| 2026-04-26 03:52 | 36.29119 | 103.76714 | 31509 ft | 471 kts | 282° |
| 2026-04-26 03:52 | 36.29739 | 103.72727 | 31113 ft | 464 kts | 282° |
| 2026-04-26 03:53 | 36.30341 | 103.68869 | 30639 ft | 459 kts | 282° |
| 2026-04-26 03:53 | 36.30949 | 103.64990 | 29967 ft | 458 kts | 282° |
| 2026-04-26 03:53 | 36.31553 | 103.61150 | 29314 ft | 456 kts | 282° |
| 2026-04-26 03:53 | 36.32154 | 103.57319 | 28664 ft | 450 kts | 282° |
| 2026-04-26 03:54 | 36.32745 | 103.53547 | 28022 ft | 446 kts | 282° |
| 2026-04-26 03:54 | 36.33335 | 103.49781 | 27367 ft | 441 kts | 282° |
| 2026-04-26 03:54 | 36.33915 | 103.46063 | 26724 ft | 437 kts | 282° |
| 2026-04-26 03:54 | 36.34503 | 103.42284 | 26063 ft | 433 kts | 281° |
| 2026-04-26 03:55 | 36.35080 | 103.38571 | 25410 ft | 430 kts | 281° |
| 2026-04-26 03:55 | 36.35663 | 103.34813 | 24738 ft | 426 kts | 281° |
| 2026-04-26 03:55 | 36.36214 | 103.31157 | 24080 ft | 423 kts | 280° |
| 2026-04-26 03:55 | 36.36745 | 103.27560 | 23420 ft | 420 kts | 280° |
| 2026-04-26 03:56 | 36.37278 | 103.23981 | 22771 ft | 417 kts | 280° |
| 2026-04-26 03:56 | 36.37808 | 103.20454 | 22253 ft | 412 kts | 280° |
| 2026-04-26 03:56 | 36.38351 | 103.16862 | 21729 ft | 412 kts | 280° |
| 2026-04-26 03:56 | 36.38887 | 103.13324 | 21217 ft | 411 kts | 280° |
| 2026-04-26 03:57 | 36.39433 | 103.09737 | 20691 ft | 408 kts | 280° |
| 2026-04-26 03:57 | 36.39972 | 103.06200 | 20176 ft | 406 kts | 280° |
| 2026-04-26 03:57 | 36.40500 | 103.02721 | 19672 ft | 405 kts | 280° |
| 2026-04-26 03:57 | 36.41027 | 102.99243 | 19167 ft | 403 kts | 280° |
| 2026-04-26 03:58 | 36.41553 | 102.95768 | 18662 ft | 401 kts | 280° |
| 2026-04-26 03:58 | 36.42072 | 102.92331 | 18171 ft | 401 kts | 280° |
| 2026-04-26 03:58 | 36.42585 | 102.88931 | 17680 ft | 399 kts | 279° |
| 2026-04-26 03:58 | 36.43100 | 102.85486 | 17190 ft | 398 kts | 279° |
| 2026-04-26 03:59 | 36.43565 | 102.82075 | 16701 ft | 399 kts | 279° |
| 2026-04-26 03:59 | 36.44054 | 102.78709 | 16230 ft | 394 kts | 284° |
| 2026-04-26 03:59 | 36.45076 | 102.75585 | 15869 ft | 386 kts | 299° |
| 2026-04-26 03:59 | 36.46556 | 102.72798 | 15517 ft | 378 kts | 306° |
| 2026-04-26 04:00 | 36.48114 | 102.70242 | 15150 ft | 359 kts | 308° |
| 2026-04-26 04:00 | 36.49605 | 102.67845 | 14987 ft | 333 kts | 307° |
| 2026-04-26 04:00 | 36.50662 | 102.65410 | 14967 ft | 306 kts | 287° |
| 2026-04-26 04:00 | 36.50940 | 102.62912 | 14957 ft | 280 kts | 262° |
| 2026-04-26 04:01 | 36.50605 | 102.60593 | 14980 ft | 263 kts | 261° |
| 2026-04-26 04:01 | 36.50188 | 102.58318 | 14675 ft | 268 kts | 253° |
| 2026-04-26 04:01 | 36.49537 | 102.56157 | 14315 ft | 267 kts | 247° |
| 2026-04-26 04:01 | 36.48759 | 102.54042 | 13952 ft | 265 kts | 245° |
| 2026-04-26 04:02 | 36.47931 | 102.51940 | 13593 ft | 264 kts | 244° |
| 2026-04-26 04:02 | 36.47088 | 102.49848 | 13243 ft | 264 kts | 243° |
| 2026-04-26 04:02 | 36.46238 | 102.47772 | 13044 ft | 260 kts | 243° |
| 2026-04-26 04:02 | 36.45389 | 102.45724 | 12746 ft | 266 kts | 243° |
| 2026-04-26 04:03 | 36.44524 | 102.43642 | 12397 ft | 265 kts | 243° |
| 2026-04-26 04:03 | 36.43686 | 102.41609 | 12051 ft | 262 kts | 246° |
| 2026-04-26 04:03 | 36.43303 | 102.39428 | 11696 ft | 258 kts | 278° |
| 2026-04-26 04:03 | 36.43722 | 102.37264 | 11471 ft | 251 kts | 288° |
| 2026-04-26 04:04 | 36.44253 | 102.35194 | 11409 ft | 242 kts | 290° |
| 2026-04-26 04:04 | 36.44801 | 102.33221 | 11282 ft | 229 kts | 290° |
| 2026-04-26 04:04 | 36.45341 | 102.31337 | 11077 ft | 226 kts | 290° |
| 2026-04-26 04:04 | 36.45864 | 102.29507 | 10917 ft | 212 kts | 290° |
| 2026-04-26 04:05 | 36.46359 | 102.27766 | 10617 ft | 213 kts | 290° |
| 2026-04-26 04:05 | 36.46853 | 102.26020 | 10331 ft | 211 kts | 289° |
| 2026-04-26 04:05 | 36.47342 | 102.24282 | 10046 ft | 206 kts | 289° |
| 2026-04-26 04:05 | 36.47811 | 102.22608 | 9799 ft | 192 kts | 290° |
| 2026-04-26 04:06 | 36.48234 | 102.21098 | 9569 ft | 180 kts | 291° |
| 2026-04-26 04:06 | 36.48626 | 102.19700 | 9308 ft | 172 kts | 291° |
| 2026-04-26 04:06 | 36.49022 | 102.18291 | 9094 ft | 170 kts | 291° |
| 2026-04-26 04:06 | 36.49417 | 102.16886 | 8907 ft | 174 kts | 290° |
| 2026-04-26 04:07 | 36.49824 | 102.15435 | 8686 ft | 177 kts | 290° |
| 2026-04-26 04:07 | 36.50232 | 102.13979 | 8463 ft | 176 kts | 289° |
| 2026-04-26 04:07 | 36.50635 | 102.12538 | 8232 ft | 174 kts | 288° |
| 2026-04-26 04:07 | 36.51043 | 102.11075 | 8028 ft | 175 kts | 288° |
| 2026-04-26 04:08 | 36.51447 | 102.09632 | 7806 ft | 174 kts | 288° |
| 2026-04-26 04:08 | 36.51845 | 102.08214 | 7594 ft | 172 kts | 288° |
| 2026-04-26 04:08 | 36.52240 | 102.06789 | 7384 ft | 170 kts | 288° |
| 2026-04-26 04:08 | 36.52631 | 102.05378 | 7225 ft | 166 kts | 288° |
| 2026-04-26 04:09 | 36.52982 | 102.04144 | 7217 ft | 121 kts | 288° |
| 2026-04-26 04:09 | 36.53172 | 102.03447 | 7218 ft | 39 kts | 288° |
| 2026-04-26 04:09 | 36.53203 | 102.03186 | 7218 ft | 27 kts | 266° |
| 2026-04-26 04:09 | 36.53188 | 102.03063 | 7218 ft | 10 kts | 261° |
| 2026-04-26 04:10 | 36.53170 | 102.03004 | 7218 ft | 3 kts | 212° |
| 2026-04-26 04:10 | 36.53138 | 102.03004 | 7218 ft | 7 kts | 159° |
| 2026-04-26 04:10 | 36.53101 | 102.03082 | 7218 ft | 13 kts | 109° |
| 2026-04-26 04:10 | 36.53065 | 102.03213 | 7218 ft | 15 kts | 109° |
| 2026-04-26 04:11 | 36.53031 | 102.03336 | 7217 ft | 14 kts | 109° |
| 2026-04-26 04:11 | 36.53001 | 102.03442 | 7217 ft | 12 kts | 109° |
| 2026-04-26 04:11 | 36.52975 | 102.03535 | 7217 ft | 10 kts | 109° |
| 2026-04-26 04:11 | 36.52952 | 102.03617 | 7217 ft | 11 kts | 109° |
| 2026-04-26 04:12 | 36.52915 | 102.03748 | 7216 ft | 20 kts | 109° |
| 2026-04-26 04:12 | 36.52862 | 102.03940 | 7216 ft | 22 kts | 109° |
| 2026-04-26 04:12 | 36.52812 | 102.04124 | 7216 ft | 20 kts | 109° |
| 2026-04-26 04:12 | 36.52766 | 102.04291 | 7215 ft | 18 kts | 108° |
| 2026-04-26 04:13 | 36.52728 | 102.04441 | 7215 ft | 17 kts | 107° |
| 2026-04-26 04:13 | 36.52699 | 102.04548 | 7215 ft | 6 kts | 116° |
| 2026-04-26 04:13 | 36.52675 | 102.04581 | 7215 ft | 4 kts | 147° |
| 2026-04-26 04:13 | 36.52623 | 102.04578 | 7214 ft | 11 kts | 209° |
| 2026-04-26 04:14 | 36.52531 | 102.04535 | 7214 ft | 14 kts | 199° |
| 2026-04-26 04:14 | 36.52439 | 102.04497 | 7213 ft | 12 kts | 198° |
| 2026-04-26 04:14 | 36.52358 | 102.04481 | 7213 ft | 10 kts | 172° |
| 2026-04-26 04:14 | 36.52301 | 102.04514 | 7212 ft | 8 kts | 148° |
| 2026-04-26 04:15 | 36.52291 | 102.04521 | 7212 ft | 0 kts | 149° |